Time;durP1;ratioP1;P1;durP2;ratioP2;P2;SDS_P1;SDS_P2;PMS_P1;PMS_P2;Temp;Humidity;BMP_temperature;BMP_pressure;BME280_temperature;BME280_humidity;BME280_pressure;Samples;Min_cycle;Max_cycle;Signal;HPM_P1;HPM_P2
2021/10/16 00:01:20;;;;;;;178.67;166.73;;;;;;;;;;5072342;28;20453;-68
2021/10/16 00:03:47;;;;;;;201.13;188.77;;;;;;;;;;5072265;28;20773;-69
2021/10/16 00:06:14;;;;;;;175.70;164.13;;;;;;;;;;5071553;28;20955;-69
2021/10/16 00:08:41;;;;;;;184.37;172.60;;;;;;;;;;5072279;28;20443;-68
2021/10/16 00:11:08;;;;;;;176.03;164.67;;;;;;;;;;5072232;28;20462;-69
2021/10/16 00:13:37;;;;;;;170.07;158.47;;;;;;;;;;5071672;28;20490;-69
2021/10/16 00:16:04;;;;;;;170.50;159.60;;;;;;;;;;5072196;28;20520;-69
2021/10/16 00:18:32;;;;;;;171.43;160.33;;;;;;;;;;5071608;28;20960;-70
2021/10/16 00:20:59;;;;;;;171.63;160.40;;;;;;;;;;5071785;28;20451;-68
2021/10/16 00:23:26;;;;;;;170.83;159.57;;;;;;;;;;5071999;28;20469;-69
2021/10/16 00:25:54;;;;;;;179.67;168.17;;;;;;;;;;5071834;28;20447;-68
2021/10/16 00:28:21;;;;;;;176.40;164.93;;;;;;;;;;5071992;28;20464;-68
2021/10/16 00:30:49;;;;;;;188.50;176.53;;;;;;;;;;5071624;28;20537;-70
2021/10/16 00:33:17;;;;;;;198.03;185.83;;;;;;;;;;5072146;28;20471;-68
2021/10/16 00:35:44;;;;;;;195.00;183.00;;;;;;;;;;5071434;28;20607;-69
2021/10/16 00:38:11;;;;;;;188.73;177.20;;;;;;;;;;5072008;28;20447;-69
2021/10/16 00:40:38;;;;;;;196.13;184.00;;;;;;;;;;5071556;28;20446;-70
2021/10/16 00:43:05;;;;;;;193.63;181.70;;;;;;;;;;5071497;28;20466;-68
2021/10/16 00:45:32;;;;;;;194.43;182.10;;;;;;;;;;5072286;28;20443;-68
2021/10/16 00:48:01;;;;;;;185.00;173.37;;;;;;;;;;5076108;28;20808;-68
2021/10/16 00:50:28;;;;;;;182.00;170.60;;;;;;;;;;5076104;28;20439;-68
2021/10/16 00:52:55;;;;;;;186.73;174.90;;;;;;;;;;5075284;28;20825;-68
2021/10/16 00:55:24;;;;;;;186.80;175.10;;;;;;;;;;5075555;28;20482;-69
2021/10/16 00:57:53;;;;;;;190.33;178.73;;;;;;;;;;5075505;28;20454;-69
2021/10/16 01:00:20;;;;;;;186.73;175.20;;;;;;;;;;5075774;28;20451;-69
2021/10/16 01:02:48;;;;;;;191.00;178.97;;;;;;;;;;5076637;28;20484;-69
2021/10/16 01:05:17;;;;;;;182.30;170.70;;;;;;;;;;5075502;28;20980;-69
2021/10/16 01:07:44;;;;;;;167.97;156.77;;;;;;;;;;5075457;28;20447;-69
2021/10/16 01:10:12;;;;;;;167.10;156.60;;;;;;;;;;5075805;28;20453;-69
2021/10/16 01:12:39;;;;;;;171.10;160.10;;;;;;;;;;5075127;28;20478;-69
2021/10/16 01:15:08;;;;;;;173.27;162.40;;;;;;;;;;5074962;28;20485;-68
2021/10/16 01:17:36;;;;;;;170.17;159.27;;;;;;;;;;5075596;28;20447;-70
2021/10/16 01:20:05;;;;;;;166.27;155.57;;;;;;;;;;5075663;28;20446;-68
2021/10/16 01:22:34;;;;;;;171.77;160.50;;;;;;;;;;5075881;28;20462;-68
2021/10/16 01:25:02;;;;;;;175.77;164.57;;;;;;;;;;5075054;28;20946;-70
2021/10/16 01:27:29;;;;;;;172.30;161.07;;;;;;;;;;5075628;28;21107;-69
2021/10/16 01:29:56;;;;;;;170.37;159.63;;;;;;;;;;5075705;28;20451;-69
2021/10/16 01:32:23;;;;;;;162.30;151.70;;;;;;;;;;5078217;28;20462;-69
2021/10/16 01:34:50;;;;;;;165.80;155.10;;;;;;;;;;5082105;28;20834;-69
2021/10/16 01:37:17;;;;;;;172.13;161.53;;;;;;;;;;5082169;28;20457;-69
2021/10/16 01:39:46;;;;;;;171.20;160.33;;;;;;;;;;5082115;28;20462;-69
2021/10/16 01:42:13;;;;;;;192.70;180.97;;;;;;;;;;5083400;28;20471;-75
2021/10/16 01:44:41;;;;;;;180.57;169.57;;;;;;;;;;5078092;28;20442;-69
2021/10/16 01:47:08;;;;;;;174.23;163.23;;;;;;;;;;5076691;28;20480;-69
2021/10/16 01:49:36;;;;;;;176.97;165.90;;;;;;;;;;5076802;28;20453;-69
2021/10/16 01:52:04;;;;;;;164.83;154.00;;;;;;;;;;5076433;28;20473;-68
2021/10/16 01:54:31;;;;;;;161.67;150.97;;;;;;;;;;5075626;28;20475;-68
2021/10/16 01:56:59;;;;;;;163.70;153.33;;;;;;;;;;5075381;28;20443;-69
2021/10/16 01:59:27;;;;;;;153.47;143.20;;;;;;;;;;5076513;28;20447;-68
2021/10/16 02:01:55;;;;;;;149.33;139.73;;;;;;;;;;5082130;28;20469;-69
2021/10/16 02:04:22;;;;;;;146.70;137.00;;;;;;;;;;5082154;28;20446;-68
2021/10/16 02:06:49;;;;;;;147.23;137.83;;;;;;;;;;5082233;28;20529;-69
2021/10/16 02:09:16;;;;;;;136.63;127.63;;;;;;;;;;5082219;28;20451;-70
2021/10/16 02:11:43;;;;;;;142.97;133.87;;;;;;;;;;5080725;28;20478;-70
2021/10/16 02:14:12;;;;;;;137.53;128.73;;;;;;;;;;5082033;28;20482;-70
2021/10/16 02:16:39;;;;;;;129.93;121.40;;;;;;;;;;5078367;28;20449;-68
2021/10/16 02:19:06;;;;;;;134.63;125.43;;;;;;;;;;5074959;28;20459;-70
2021/10/16 02:21:33;;;;;;;129.83;121.07;;;;;;;;;;5074056;28;20473;-68
2021/10/16 02:24:01;;;;;;;132.50;124.20;;;;;;;;;;5074000;28;20450;-69
2021/10/16 02:26:28;;;;;;;133.83;125.60;;;;;;;;;;5073992;28;20442;-68
2021/10/16 02:28:55;;;;;;;129.27;121.17;;;;;;;;;;5074275;28;20473;-69
2021/10/16 02:31:23;;;;;;;131.33;122.43;;;;;;;;;;5073815;28;20447;-69
2021/10/16 02:33:51;;;;;;;127.47;119.30;;;;;;;;;;5073716;28;20451;-69
2021/10/16 02:36:18;;;;;;;123.50;115.70;;;;;;;;;;5073140;28;20443;-69
2021/10/16 02:38:45;;;;;;;127.30;119.00;;;;;;;;;;5073680;28;20446;-69
2021/10/16 02:41:12;;;;;;;121.17;113.40;;;;;;;;;;5073527;28;20825;-69
2021/10/16 02:43:39;;;;;;;129.00;120.93;;;;;;;;;;5073971;28;20447;-69
2021/10/16 02:46:06;;;;;;;122.90;115.10;;;;;;;;;;5073473;28;20484;-68
2021/10/16 02:48:35;;;;;;;121.13;113.50;;;;;;;;;;5074133;28;20817;-69
2021/10/16 02:51:02;;;;;;;120.30;112.83;;;;;;;;;;5074096;28;20447;-69
2021/10/16 02:53:29;;;;;;;123.67;115.77;;;;;;;;;;5073821;28;20989;-70
2021/10/16 02:55:56;;;;;;;126.10;118.03;;;;;;;;;;5073084;28;20490;-68
2021/10/16 02:58:23;;;;;;;122.97;115.13;;;;;;;;;;5073682;28;20451;-69
2021/10/16 03:00:50;;;;;;;134.93;126.93;;;;;;;;;;5073622;28;20451;-69
2021/10/16 03:03:17;;;;;;;129.70;121.60;;;;;;;;;;5073315;28;20486;-68
2021/10/16 03:05:46;;;;;;;134.80;126.20;;;;;;;;;;5073512;28;20450;-68
2021/10/16 03:08:13;;;;;;;131.13;123.10;;;;;;;;;;5072776;28;20459;-68
2021/10/16 03:10:43;;;;;;;137.23;129.13;;;;;;;;;;5072311;28;20446;-68
2021/10/16 03:13:10;;;;;;;128.13;120.30;;;;;;;;;;5072670;28;20483;-69
2021/10/16 03:15:37;;;;;;;133.00;124.90;;;;;;;;;;5072319;28;20544;-68
2021/10/16 03:18:04;;;;;;;140.27;131.80;;;;;;;;;;5072813;28;20454;-68
2021/10/16 03:20:31;;;;;;;135.00;126.80;;;;;;;;;;5072489;28;20453;-68
2021/10/16 03:23:00;;;;;;;132.07;123.57;;;;;;;;;;5072517;28;20462;-69
2021/10/16 03:25:27;;;;;;;141.77;133.17;;;;;;;;;;5072168;28;20661;-68
2021/10/16 03:27:54;;;;;;;135.67;127.30;;;;;;;;;;5072454;28;20461;-69
2021/10/16 03:30:21;;;;;;;134.63;126.33;;;;;;;;;;5072935;28;20469;-68
2021/10/16 03:32:48;;;;;;;131.03;123.00;;;;;;;;;;5072237;28;20498;-70
2021/10/16 03:35:16;;;;;;;131.03;123.03;;;;;;;;;;5071895;28;20482;-69
2021/10/16 03:37:43;;;;;;;127.40;119.50;;;;;;;;;;5072311;28;20463;-69
2021/10/16 03:40:12;;;;;;;129.50;121.70;;;;;;;;;;5071789;28;20514;-68
2021/10/16 03:42:39;;;;;;;130.13;122.10;;;;;;;;;;5072167;28;20466;-69
2021/10/16 03:45:06;;;;;;;133.60;125.43;;;;;;;;;;5071832;28;20808;-69
2021/10/16 03:47:33;;;;;;;127.13;119.17;;;;;;;;;;5072370;28;20442;-68
2021/10/16 03:50:01;;;;;;;128.50;120.57;;;;;;;;;;5072303;28;20446;-69
2021/10/16 03:52:28;;;;;;;132.83;124.33;;;;;;;;;;5071970;28;20463;-68
2021/10/16 03:54:55;;;;;;;139.20;130.53;;;;;;;;;;5071801;28;20486;-70
2021/10/16 03:57:23;;;;;;;137.43;129.20;;;;;;;;;;5072459;28;20894;-69
2021/10/16 03:59:50;;;;;;;132.40;124.50;;;;;;;;;;5071749;28;20447;-68
2021/10/16 04:02:19;;;;;;;139.80;131.43;;;;;;;;;;5071936;28;21021;-69
2021/10/16 04:04:46;;;;;;;134.93;126.83;;;;;;;;;;5071786;28;20496;-69
2021/10/16 04:07:13;;;;;;;120.80;113.50;;;;;;;;;;5071667;28;20833;-69
2021/10/16 04:09:40;;;;;;;119.03;111.60;;;;;;;;;;5072112;28;20492;-69
2021/10/16 04:12:08;;;;;;;109.83;102.27;;;;;;;;;;5071565;28;20486;-68
2021/10/16 04:14:36;;;;;;;112.30;105.23;;;;;;;;;;5089312;22;20506;-68
2021/10/16 04:17:03;;;;;;;106.37;99.23;;;;;;;;;;5070212;28;20451;-68
2021/10/16 04:19:30;;;;;;;104.80;97.83;;;;;;;;;;5071558;28;20454;-68
2021/10/16 04:21:58;;;;;;;109.10;102.10;;;;;;;;;;5071076;28;20443;-68
2021/10/16 04:24:25;;;;;;;104.73;97.80;;;;;;;;;;5070989;28;20977;-67
2021/10/16 04:26:52;;;;;;;106.57;99.87;;;;;;;;;;5071126;28;20469;-68
2021/10/16 04:29:19;;;;;;;101.33;94.57;;;;;;;;;;5071614;28;20450;-67
2021/10/16 04:31:47;;;;;;;107.80;100.90;;;;;;;;;;5071515;28;20530;-67
2021/10/16 04:34:14;;;;;;;102.83;96.20;;;;;;;;;;5071396;28;20832;-67
2021/10/16 04:36:41;;;;;;;103.30;96.53;;;;;;;;;;5071036;28;20493;-67
2021/10/16 04:39:08;;;;;;;104.00;97.20;;;;;;;;;;5071519;28;20443;-68
2021/10/16 04:41:36;;;;;;;107.40;100.47;;;;;;;;;;5071122;28;20447;-67
2021/10/16 04:44:05;;;;;;;105.63;98.87;;;;;;;;;;5070762;28;20463;-67
2021/10/16 04:46:32;;;;;;;107.60;100.20;;;;;;;;;;5071037;28;20934;-67
2021/10/16 04:49:04;;;;;;;103.80;96.70;;;;;;;;;;5071564;28;20443;-67
2021/10/16 04:51:31;;;;;;;103.57;96.83;;;;;;;;;;5071161;28;20442;-67
2021/10/16 04:53:58;;;;;;;106.37;99.30;;;;;;;;;;5070442;28;20477;-67
2021/10/16 04:56:26;;;;;;;105.47;98.67;;;;;;;;;;5071105;28;20848;-67
2021/10/16 04:58:53;;;;;;;108.40;101.03;;;;;;;;;;5071273;28;20443;-67
2021/10/16 05:01:20;;;;;;;105.73;98.93;;;;;;;;;;5071101;28;20447;-67
2021/10/16 05:03:47;;;;;;;104.33;97.20;;;;;;;;;;5071377;28;20466;-67
2021/10/16 05:06:15;;;;;;;105.67;98.77;;;;;;;;;;5070561;28;20443;-67
2021/10/16 05:08:42;;;;;;;118.77;111.17;;;;;;;;;;5071126;28;20502;-67
2021/10/16 05:11:09;;;;;;;114.80;107.23;;;;;;;;;;5071225;28;20447;-67
2021/10/16 05:13:36;;;;;;;114.87;107.33;;;;;;;;;;5070892;28;20478;-67
2021/10/16 05:16:04;;;;;;;126.07;117.77;;;;;;;;;;5070684;28;20482;-67
2021/10/16 05:18:32;;;;;;;115.67;107.67;;;;;;;;;;5070832;28;20450;-67
2021/10/16 05:20:59;;;;;;;110.97;103.70;;;;;;;;;;5070791;28;20453;-67
2021/10/16 05:23:28;;;;;;;121.07;113.47;;;;;;;;;;5070910;28;20478;-67
2021/10/16 05:25:55;;;;;;;110.57;103.17;;;;;;;;;;5070679;28;20442;-67
2021/10/16 05:28:22;;;;;;;113.53;105.97;;;;;;;;;;5070974;28;20443;-67
2021/10/16 05:30:49;;;;;;;110.80;103.70;;;;;;;;;;5071067;28;20438;-66
2021/10/16 05:33:16;;;;;;;112.33;104.63;;;;;;;;;;5072416;28;20486;-67
2021/10/16 05:35:44;;;;;;;111.03;103.50;;;;;;;;;;5073707;28;20485;-67
2021/10/16 05:38:11;;;;;;;110.30;103.03;;;;;;;;;;5074408;28;20500;-67
2021/10/16 05:40:40;;;;;;;110.63;103.53;;;;;;;;;;5074593;28;20956;-68
2021/10/16 05:43:07;;;;;;;112.23;104.83;;;;;;;;;;5074479;28;20442;-67
2021/10/16 05:45:34;;;;;;;115.27;107.93;;;;;;;;;;5074372;28;20442;-69
2021/10/16 05:48:01;;;;;;;108.33;101.03;;;;;;;;;;5075470;28;20443;-68
2021/10/16 05:50:30;;;;;;;115.43;108.00;;;;;;;;;;5075000;28;20908;-68
2021/10/16 05:52:57;;;;;;;112.77;105.13;;;;;;;;;;5075946;28;20450;-69
2021/10/16 05:55:24;;;;;;;113.00;105.63;;;;;;;;;;5075374;28;20490;-67
2021/10/16 05:57:53;;;;;;;110.83;103.40;;;;;;;;;;5076053;28;20453;-66
2021/10/16 06:00:20;;;;;;;113.40;105.87;;;;;;;;;;5076269;28;20934;-68
2021/10/16 06:02:47;;;;;;;118.40;110.67;;;;;;;;;;5076198;28;20945;-69
2021/10/16 06:05:14;;;;;;;113.47;105.97;;;;;;;;;;5076118;28;20466;-69
2021/10/16 06:07:41;;;;;;;115.10;107.37;;;;;;;;;;5075972;28;20443;-68
2021/10/16 06:10:08;;;;;;;118.33;110.93;;;;;;;;;;5075772;28;20455;-68
2021/10/16 06:12:35;;;;;;;121.10;112.90;;;;;;;;;;5075929;28;20451;-69
2021/10/16 06:15:04;;;;;;;120.53;112.70;;;;;;;;;;5075083;28;20483;-68
2021/10/16 06:17:31;;;;;;;124.77;116.63;;;;;;;;;;5076691;28;20454;-68
2021/10/16 06:19:58;;;;;;;124.63;116.43;;;;;;;;;;5076159;28;20439;-68
2021/10/16 06:22:25;;;;;;;132.60;123.80;;;;;;;;;;5076191;28;20461;-68
2021/10/16 06:24:52;;;;;;;154.57;144.97;;;;;;;;;;5075669;28;20494;-68
2021/10/16 06:27:20;;;;;;;171.57;160.17;;;;;;;;;;5076317;28;20451;-68
2021/10/16 06:29:48;;;;;;;242.90;228.60;;;;;;;;;;5075938;28;20447;-68
2021/10/16 06:32:16;;;;;;;297.53;279.70;;;;;;;;;;5075960;28;20860;-67
2021/10/16 06:34:43;;;;;;;359.20;338.40;;;;;;;;;;5076061;28;20467;-68
2021/10/16 06:37:10;;;;;;;428.87;404.50;;;;;;;;;;5076549;28;20471;-69
2021/10/16 06:39:37;;;;;;;465.93;438.83;;;;;;;;;;5077532;28;20447;-67
2021/10/16 06:42:04;;;;;;;519.87;490.00;;;;;;;;;;5077209;28;20443;-68
2021/10/16 06:44:32;;;;;;;533.03;503.03;;;;;;;;;;5073580;28;20474;-67
2021/10/16 06:46:59;;;;;;;496.33;469.70;;;;;;;;;;5072904;28;20439;-66
2021/10/16 06:49:27;;;;;;;506.43;478.50;;;;;;;;;;5073198;28;20526;-67
2021/10/16 06:51:55;;;;;;;512.20;485.00;;;;;;;;;;5073276;28;20446;-68
2021/10/16 06:54:22;;;;;;;490.67;465.17;;;;;;;;;;5072381;28;20474;-67
2021/10/16 06:56:49;;;;;;;478.20;452.93;;;;;;;;;;5072694;28;20479;-66
2021/10/16 06:59:16;;;;;;;447.27;424.37;;;;;;;;;;5073050;28;20447;-67
2021/10/16 07:01:43;;;;;;;410.77;389.60;;;;;;;;;;5073018;28;20453;-66
2021/10/16 07:04:10;;;;;;;354.33;335.00;;;;;;;;;;5072385;28;20542;-67
2021/10/16 07:06:40;;;;;;;320.17;302.23;;;;;;;;;;5072711;28;20442;-66
2021/10/16 07:09:07;;;;;;;330.43;312.80;;;;;;;;;;5072313;28;20450;-68
2021/10/16 07:11:34;;;;;;;423.23;395.63;;;;;;;;;;5072861;28;20443;-68
2021/10/16 07:14:02;;;;;;;434.10;404.93;;;;;;;;;;5072193;28;20486;-68
2021/10/16 07:16:30;;;;;;;283.63;267.03;;;;;;;;;;5072103;28;20478;-68
2021/10/16 07:18:57;;;;;;;278.73;262.80;;;;;;;;;;5072255;28;20446;-68
2021/10/16 07:21:24;;;;;;;279.57;262.93;;;;;;;;;;5072555;28;20467;-68
2021/10/16 07:23:52;;;;;;;274.97;259.33;;;;;;;;;;5072319;28;20470;-68
2021/10/16 07:26:19;;;;;;;269.73;253.90;;;;;;;;;;5072312;28;20450;-67
2021/10/16 07:28:46;;;;;;;287.43;269.93;;;;;;;;;;5072457;28;20948;-68
2021/10/16 07:31:15;;;;;;;271.10;255.23;;;;;;;;;;5072189;28;20485;-67
2021/10/16 07:33:42;;;;;;;288.23;272.07;;;;;;;;;;5072086;28;20473;-67
2021/10/16 07:36:09;;;;;;;274.03;257.67;;;;;;;;;;5072258;28;20490;-68
2021/10/16 07:38:36;;;;;;;296.73;280.37;;;;;;;;;;5071854;28;20454;-67
2021/10/16 07:41:04;;;;;;;274.77;258.17;;;;;;;;;;5071817;28;20443;-67
2021/10/16 07:43:32;;;;;;;296.77;280.67;;;;;;;;;;5072199;28;20469;-68
2021/10/16 07:45:59;;;;;;;306.70;288.30;;;;;;;;;;5071628;28;20454;-68
2021/10/16 07:48:26;;;;;;;303.57;285.33;;;;;;;;;;5072057;28;20656;-68
2021/10/16 07:50:54;;;;;;;290.90;272.90;;;;;;;;;;5072026;28;20451;-67
2021/10/16 07:53:21;;;;;;;327.27;307.47;;;;;;;;;;5071995;28;20504;-68
2021/10/16 07:55:49;;;;;;;314.30;295.40;;;;;;;;;;5071256;28;20481;-67
2021/10/16 07:58:19;;;;;;;355.37;335.70;;;;;;;;;;5072492;28;20468;-68
2021/10/16 08:00:47;;;;;;;324.70;305.50;;;;;;;;;;5071760;28;20458;-67
2021/10/16 08:03:14;;;;;;;329.10;309.93;;;;;;;;;;5071954;28;20473;-67
2021/10/16 08:05:41;;;;;;;334.83;315.33;;;;;;;;;;5071078;28;20457;-67
2021/10/16 08:08:10;;;;;;;346.27;325.93;;;;;;;;;;5071639;28;20821;-67
2021/10/16 08:10:37;;;;;;;367.50;347.27;;;;;;;;;;5071891;28;20457;-67
2021/10/16 08:13:04;;;;;;;355.97;335.97;;;;;;;;;;5071856;28;20442;-68
2021/10/16 08:15:34;;;;;;;355.50;334.60;;;;;;;;;;5071195;28;20447;-66
2021/10/16 08:18:01;;;;;;;367.07;347.10;;;;;;;;;;5071445;28;20449;-67
2021/10/16 08:20:28;;;;;;;394.30;373.03;;;;;;;;;;5071512;28;20450;-68
2021/10/16 08:22:55;;;;;;;404.70;381.83;;;;;;;;;;5071970;28;20450;-68
2021/10/16 08:25:23;;;;;;;389.80;368.77;;;;;;;;;;5071342;28;20822;-68
2021/10/16 08:27:50;;;;;;;392.87;370.17;;;;;;;;;;5071855;28;20445;-68
2021/10/16 08:30:18;;;;;;;388.53;367.27;;;;;;;;;;5071901;28;20942;-67
2021/10/16 08:32:46;;;;;;;399.73;377.73;;;;;;;;;;5071541;28;20462;-66
2021/10/16 08:35:13;;;;;;;451.57;420.37;;;;;;;;;;5071074;28;20981;-67
2021/10/16 08:37:40;;;;;;;476.13;444.93;;;;;;;;;;5071360;28;20478;-68
2021/10/16 08:40:08;;;;;;;492.00;457.00;;;;;;;;;;5071629;28;20442;-67
2021/10/16 08:42:35;;;;;;;495.60;461.93;;;;;;;;;;5071497;28;20447;-68
2021/10/16 08:45:02;;;;;;;487.97;454.87;;;;;;;;;;5070723;28;20549;-67
2021/10/16 08:47:30;;;;;;;446.60;417.07;;;;;;;;;;5070991;28;20443;-67
2021/10/16 08:50:00;;;;;;;453.77;424.63;;;;;;;;;;5071407;28;20450;-65
2021/10/16 08:52:27;;;;;;;439.63;411.73;;;;;;;;;;5071211;28;20461;-66
2021/10/16 08:54:55;;;;;;;414.93;390.67;;;;;;;;;;5071034;28;20474;-67
2021/10/16 08:57:22;;;;;;;422.13;399.60;;;;;;;;;;5071103;28;20474;-67
2021/10/16 08:59:49;;;;;;;409.97;386.80;;;;;;;;;;5071211;28;20538;-67
2021/10/16 09:02:16;;;;;;;401.10;379.50;;;;;;;;;;5071083;28;20443;-67
2021/10/16 09:04:43;;;;;;;402.43;379.20;;;;;;;;;;5070712;28;20915;-68
2021/10/16 09:07:21;;;;;;;381.63;359.40;;;;;;;;;;5073535;28;20522;-67
2021/10/16 09:09:49;;;;;;;350.87;329.30;;;;;;;;;;5074850;28;20456;-66
2021/10/16 09:12:16;;;;;;;341.90;323.40;;;;;;;;;;5074312;28;20450;-66
2021/10/16 09:14:47;;;;;;;347.33;329.17;;;;;;;;;;5074410;28;20504;-67
2021/10/16 09:17:15;;;;;;;356.53;340.10;;;;;;;;;;5074791;28;20478;-67
2021/10/16 09:19:43;;;;;;;342.10;326.17;;;;;;;;;;5074974;28;20447;-67
2021/10/16 09:22:11;;;;;;;329.60;315.43;;;;;;;;;;5075079;28;20447;-68
2021/10/16 09:24:40;;;;;;;325.63;311.73;;;;;;;;;;5074400;28;20474;-67
2021/10/16 09:27:08;;;;;;;315.47;301.57;;;;;;;;;;5074840;28;20454;-67
2021/10/16 09:29:36;;;;;;;343.23;327.63;;;;;;;;;;5074766;28;20447;-67
2021/10/16 09:32:05;;;;;;;338.47;322.50;;;;;;;;;;5074468;28;20461;-67
2021/10/16 09:34:34;;;;;;;384.73;369.03;;;;;;;;;;5074279;28;20558;-66
2021/10/16 09:37:02;;;;;;;323.43;310.83;;;;;;;;;;5074194;28;20489;-67
2021/10/16 09:39:29;;;;;;;259.63;249.27;;;;;;;;;;5074567;28;20446;-67
2021/10/16 09:41:58;;;;;;;197.43;189.13;;;;;;;;;;5074332;28;20447;-67
2021/10/16 09:44:26;;;;;;;201.83;193.37;;;;;;;;;;5074279;28;20478;-66
2021/10/16 09:47:01;;;;;;;191.57;183.50;;;;;;;;;;5074166;28;20438;-67
2021/10/16 09:49:33;;;;;;;151.37;144.40;;;;;;;;;;5074369;28;20941;-68
2021/10/16 09:52:00;;;;;;;72.00;68.17;;;;;;;;;;5074272;28;20454;-68
2021/10/16 09:54:30;;;;;;;41.97;39.40;;;;;;;;;;5074350;28;20502;-67
2021/10/16 09:56:59;;;;;;;34.37;32.47;;;;;;;;;;5073892;28;20906;-67
2021/10/16 09:59:27;;;;;;;31.80;29.43;;;;;;;;;;5074020;28;20498;-68
2021/10/16 10:01:54;;;;;;;29.27;27.50;;;;;;;;;;5074169;28;20446;-67
2021/10/16 10:04:23;;;;;;;28.33;26.83;;;;;;;;;;5073681;28;20466;-67
2021/10/16 10:06:50;;;;;;;27.23;25.73;;;;;;;;;;5073866;28;20454;-68
2021/10/16 10:09:18;;;;;;;26.80;25.33;;;;;;;;;;5074519;28;20466;-66
2021/10/16 10:11:47;;;;;;;26.10;24.70;;;;;;;;;;5073630;28;20447;-68
2021/10/16 10:14:19;;;;;;;26.80;25.40;;;;;;;;;;5096754;22;20625;-68
2021/10/16 10:16:46;;;;;;;23.63;22.33;;;;;;;;;;5068433;28;20992;-69
2021/10/16 10:19:14;;;;;;;27.17;25.57;;;;;;;;;;5074092;28;20443;-70
2021/10/16 10:21:41;;;;;;;26.90;25.50;;;;;;;;;;5074188;28;20447;-68
2021/10/16 10:24:10;;;;;;;26.00;24.30;;;;;;;;;;5073869;28;20466;-69
2021/10/16 10:26:38;;;;;;;26.80;25.37;;;;;;;;;;5074547;28;20541;-68
2021/10/16 10:29:05;;;;;;;24.90;23.17;;;;;;;;;;5074704;28;20454;-68
2021/10/16 10:31:51;;;;;;;28.20;26.50;;;;;;;;;;5075390;28;20446;-68
2021/10/16 10:34:21;;;;;;;27.83;26.13;;;;;;;;;;5074388;28;20466;-68
2021/10/16 10:36:49;;;;;;;28.63;27.10;;;;;;;;;;5075634;28;20482;-68
2021/10/16 10:39:35;;;;;;;28.63;26.77;;;;;;;;;;5075077;28;20451;-69
2021/10/16 10:42:04;;;;;;;29.67;28.00;;;;;;;;;;5076516;28;20451;-69
2021/10/16 10:44:40;;;;;;;29.93;28.23;;;;;;;;;;5074512;28;20466;-67
2021/10/16 10:47:23;;;;;;;31.93;30.03;;;;;;;;;;5075474;28;20885;-67
2021/10/16 10:49:51;;;;;;;35.50;33.30;;;;;;;;;;5075754;28;20462;-68
2021/10/16 10:52:21;;;;;;;38.13;35.97;;;;;;;;;;5074354;28;20946;-68
2021/10/16 10:55:04;;;;;;;35.93;34.03;;;;;;;;;;5073716;28;20467;-68
2021/10/16 10:57:56;;;;;;;36.00;33.80;;;;;;;;;;5072490;28;20479;-68
2021/10/16 11:00:38;;;;;;;32.33;30.30;;;;;;;;;;5074507;28;20435;-68
2021/10/16 11:03:20;;;;;;;34.87;32.87;;;;;;;;;;5073768;28;20442;-68
2021/10/16 11:05:49;;;;;;;35.17;32.90;;;;;;;;;;5071899;28;20977;-67
2021/10/16 11:08:16;;;;;;;34.67;32.30;;;;;;;;;;5074882;28;20434;-68
2021/10/16 11:10:44;;;;;;;40.53;38.43;;;;;;;;;;5074489;28;20451;-68
2021/10/16 11:13:12;;;;;;;37.47;35.57;;;;;;;;;;5072618;28;20964;-68
2021/10/16 11:15:39;;;;;;;33.30;31.40;;;;;;;;;;5073300;28;20608;-68
2021/10/16 11:18:10;;;;;;;35.43;33.33;;;;;;;;;;5073621;28;20482;-67
2021/10/16 11:20:38;;;;;;;44.90;42.40;;;;;;;;;;5073871;28;20439;-68
2021/10/16 11:23:09;;;;;;;52.60;49.80;;;;;;;;;;5073775;28;20458;-68
2021/10/16 11:25:36;;;;;;;58.47;55.27;;;;;;;;;;5072506;28;20477;-68
2021/10/16 11:28:08;;;;;;;58.70;55.60;;;;;;;;;;5072528;28;20526;-68
2021/10/16 11:30:36;;;;;;;54.53;51.37;;;;;;;;;;5072303;28;20469;-68
2021/10/16 11:33:04;;;;;;;50.10;47.50;;;;;;;;;;5072557;28;20968;-68
2021/10/16 11:35:31;;;;;;;48.70;46.00;;;;;;;;;;5072075;28;20832;-69
2021/10/16 11:37:59;;;;;;;52.40;49.60;;;;;;;;;;5072336;28;20482;-68
2021/10/16 11:40:28;;;;;;;63.30;59.90;;;;;;;;;;5073341;28;20470;-67
2021/10/16 11:42:56;;;;;;;69.93;66.43;;;;;;;;;;5072602;28;20450;-69
2021/10/16 11:45:25;;;;;;;65.27;61.83;;;;;;;;;;5072554;28;20478;-69
2021/10/16 11:47:53;;;;;;;66.43;62.83;;;;;;;;;;5072450;28;20489;-68
2021/10/16 11:50:21;;;;;;;78.10;74.00;;;;;;;;;;5072673;28;20469;-68
2021/10/16 11:52:49;;;;;;;78.80;74.70;;;;;;;;;;5072667;28;20458;-69
2021/10/16 11:55:18;;;;;;;57.00;53.90;;;;;;;;;;5086039;28;20463;-70
2021/10/16 11:57:46;;;;;;;47.73;45.03;;;;;;;;;;5094603;28;20486;-69
2021/10/16 12:00:24;;;;;;;38.00;35.90;;;;;;;;;;5087734;28;20451;-68
2021/10/16 12:02:51;;;;;;;39.30;37.10;;;;;;;;;;5072217;28;20447;-68
2021/10/16 12:05:20;;;;;;;39.60;37.27;;;;;;;;;;5072330;28;20466;-68
2021/10/16 12:07:47;;;;;;;41.67;39.07;;;;;;;;;;5073394;28;20450;-68
2021/10/16 12:10:18;;;;;;;40.30;38.10;;;;;;;;;;5073048;28;20450;-68
2021/10/16 12:12:57;;;;;;;37.43;35.33;;;;;;;;;;5072765;28;20466;-68
2021/10/16 12:15:25;;;;;;;33.43;31.40;;;;;;;;;;5071696;28;21009;-67
2021/10/16 12:17:52;;;;;;;33.10;31.07;;;;;;;;;;5072028;28;20956;-69
2021/10/16 12:20:19;;;;;;;28.10;26.50;;;;;;;;;;5072025;28;20442;-68
2021/10/16 12:22:57;;;;;;;27.57;25.97;;;;;;;;;;5073908;28;20447;-69
2021/10/16 12:25:24;;;;;;;26.73;25.33;;;;;;;;;;5071474;28;20471;-68
2021/10/16 12:28:03;;;;;;;25.50;24.00;;;;;;;;;;5071738;28;20939;-68
2021/10/16 12:30:30;;;;;;;24.87;23.50;;;;;;;;;;5072161;28;20455;-68
2021/10/16 12:33:04;;;;;;;24.90;23.50;;;;;;;;;;5071441;28;20450;-68
2021/10/16 12:35:31;;;;;;;25.27;23.97;;;;;;;;;;5071672;28;20474;-68
2021/10/16 12:37:59;;;;;;;25.20;23.77;;;;;;;;;;5071906;28;20584;-68
2021/10/16 12:40:36;;;;;;;25.63;24.23;;;;;;;;;;5071342;28;20504;-68
2021/10/16 12:43:05;;;;;;;26.20;24.73;;;;;;;;;;5075305;28;20452;-68
2021/10/16 12:45:36;;;;;;;26.90;25.40;;;;;;;;;;5075553;28;20455;-67
2021/10/16 12:48:18;;;;;;;26.83;25.10;;;;;;;;;;5075791;28;20488;-69
2021/10/16 12:50:52;;;;;;;26.07;24.50;;;;;;;;;;5075291;28;20824;-67
2021/10/16 12:53:19;;;;;;;26.00;24.60;;;;;;;;;;5075718;28;20684;-68
2021/10/16 12:55:46;;;;;;;26.33;24.73;;;;;;;;;;5077103;28;20474;-68
2021/10/16 12:58:16;;;;;;;25.47;23.97;;;;;;;;;;5076021;28;20478;-69
2021/10/16 13:00:44;;;;;;;26.87;25.37;;;;;;;;;;5076045;28;20431;-69
2021/10/16 13:03:12;;;;;;;26.50;25.00;;;;;;;;;;5075662;28;20454;-67
2021/10/16 13:05:39;;;;;;;26.60;25.10;;;;;;;;;;5074874;28;20466;-68
2021/10/16 13:08:08;;;;;;;25.63;24.23;;;;;;;;;;5075526;28;20442;-68
2021/10/16 13:10:36;;;;;;;27.87;26.37;;;;;;;;;;5076070;28;20454;-67
2021/10/16 13:13:03;;;;;;;27.70;26.20;;;;;;;;;;5076528;28;20502;-68
2021/10/16 13:15:31;;;;;;;30.17;28.37;;;;;;;;;;5075707;28;20474;-68
2021/10/16 13:17:58;;;;;;;30.03;28.43;;;;;;;;;;5074988;28;20485;-67
2021/10/16 13:20:25;;;;;;;30.63;28.83;;;;;;;;;;5082975;28;20785;-68
2021/10/16 13:22:53;;;;;;;31.70;29.93;;;;;;;;;;5085121;28;20454;-69
2021/10/16 13:25:20;;;;;;;33.67;31.50;;;;;;;;;;5085374;28;20466;-69
2021/10/16 13:27:47;;;;;;;33.87;31.90;;;;;;;;;;5079335;28;20461;-68
2021/10/16 13:30:17;;;;;;;36.43;34.27;;;;;;;;;;5075757;28;20442;-69
2021/10/16 13:32:46;;;;;;;39.40;37.30;;;;;;;;;;5074931;28;20557;-68
2021/10/16 13:35:13;;;;;;;40.27;37.97;;;;;;;;;;5074810;28;20489;-68
2021/10/16 13:37:40;;;;;;;42.57;40.13;;;;;;;;;;5074737;28;20478;-68
2021/10/16 13:40:08;;;;;;;42.57;40.27;;;;;;;;;;5074623;28;20451;-68
2021/10/16 13:42:36;;;;;;;44.90;42.50;;;;;;;;;;5074931;28;20447;-67
2021/10/16 13:45:04;;;;;;;45.57;42.97;;;;;;;;;;5074178;28;20516;-67
2021/10/16 13:47:31;;;;;;;45.00;42.53;;;;;;;;;;5075038;28;20449;-68
2021/10/16 13:49:59;;;;;;;51.43;48.20;;;;;;;;;;5074655;28;20454;-68
2021/10/16 13:52:26;;;;;;;39.13;36.57;;;;;;;;;;5074092;28;20826;-69
2021/10/16 13:54:54;;;;;;;36.67;34.37;;;;;;;;;;5073241;28;20469;-68
2021/10/16 13:57:21;;;;;;;36.57;34.27;;;;;;;;;;5073987;28;20454;-69
2021/10/16 13:59:48;;;;;;;33.83;31.73;;;;;;;;;;5074357;28;20816;-67
2021/10/16 14:02:15;;;;;;;34.37;32.37;;;;;;;;;;5074677;28;20443;-69
2021/10/16 14:04:42;;;;;;;34.30;32.13;;;;;;;;;;5073908;28;20466;-67
2021/10/16 14:07:10;;;;;;;34.03;32.00;;;;;;;;;;5074039;28;20447;-68